Tuesday, July 22, 2014
17:34 UTC
  |  Log In   |  Register Free
Airport Search:

Smithville Municipal Airport
(0A3)

Smithville Municipal Airport Diagram
No Airport Diagram Available

FAA data valid effective May 29, 2014 until July 24, 2014 (unless otherwise noted).

 
 
 
 
 
 
 
 
 
 
 
 
 
 

Current Aviation Weather for Smithville Municipal Airport (0A3)

The most recent METAR observation for KSRB was updated at: 1655 UTC
METAR Summary (Translated METAR)
KSRB
221655Z AUTO 00000KT 10SM FEW034 SCT041 30/22 A3013 RMK
KCSV
(22.5 nm SE from KSRB)
221553Z AUTO 14005KT 10SM CLR 27/18 A3019 RMK AO2 SLP201 T02670178
TAF Summary (Translated TAF)
KCSV
(22.5 nm SE from KSRB)
221120Z 2212/2312 VRB03KT P6SM SCT050 FM221900 VRB03KT P6SM VCTS SCT050CB BKN250 FM230800 00000KT 3SM BR FEW250
  Airport Weather Conditions for 0A3

Current weather conditions are
not available for 0A3


The nearest NOAA weather station
is at SRB, (14.2 nm NE from 0A3)
  
 Current Weather at SRB
86° F
Partly Cloudy
North winds at 0.0 mph
SRB NOAA Radar

Pressure: 30.13 in
Humidity: 62%
Wind: Calm
Dew Point: 71.6°F
Visibility: 10.00 mi


Airport Weather Forecast for 0A3

Translated METAR and TAF for KSRB
Translated METAR for KSRB (1727 UTC 22 July 2014)
found at http://aviationweather.gov/adds/metars/
 
METAR text: KSRB 221715Z AUTO 00000KT 10SM CLR 31/23 A3013 RMK
Conditions at: KSRB (SPARTA , TN, US) observed 1715 UTC 22 July 2014
Temperature: 31.0°C (88°F)
Dewpoint: 23.0°C (73°F) [RH = 63%]
Pressure (altimeter): 30.13 inches Hg (1020.4 mb)
Winds: calm
Visibility: 10 or more miles (16+ km)
Ceiling: at least 12,000 feet AGL
Clouds: sky clear below 12,000 feet AGL
Weather: no significant weather observed at this time
Translated TAF for KSRB

There is no translated TAF available for this airport

Find All Airport Services Find A Hotel Find A Rental Car Find A Golf Course Find A Restaurant $100 Hamburger



FBO's on the Field
FBO Company Facility Photos Services Transportation Aviation Fuel Prices: Prices include tax
Catering Weather Repair Courtesy Rental Type 100LL JetA JetA+ MOGAS 8087
 
Smithville Municipal Airport

This FBO has not yet been rated
FS:Shell
Last Updated: Jun-30
Login to update fuel prices
SS:
Contact Smithville Municipal AirportMore FBO Information
 
Add another FBO Facility Photos Catering Weather Repair Courtesy Rental Type 100LL JetA JetA+ MOGAS 8087
Services Transportation Aviation Fuel Prices: Prices include tax


GlobalAir.com Airport Resource Center model-print
model-print
model-print
model-print